Time;durP1;ratioP1;P1;durP2;ratioP2;P2;SDS_P1;SDS_P2;PMS_P1;PMS_P2;Temp;Humidity;BMP_temperature;BMP_pressure;BME280_temperature;BME280_humidity;BME280_pressure;Samples;Min_cycle;Max_cycle;Signal;HPM_P1;HPM_P2
2022/04/29 00:01:25;;;;;;;16.05;5.97;;;;;;;;;;5074224;28;20124;-72
2022/04/29 00:03:53;;;;;;;16.48;6.32;;;;;;;;;;5074402;28;20045;-72
2022/04/29 00:06:19;;;;;;;17.60;6.45;;;;;;;;;;5075022;28;20115;-73
2022/04/29 00:08:45;;;;;;;;;;;;;;;;;;5057613;28;20044;-72
2022/04/29 00:11:11;;;;;;;19.00;6.13;;;;;;;;;;5074296;28;19920;-73
2022/04/29 00:13:38;;;;;;;14.55;6.55;;;;;;;;;;5074932;28;20056;-72
2022/04/29 00:16:05;;;;;;;17.58;6.13;;;;;;;;;;5072968;28;20589;-72
2022/04/29 00:18:31;;;;;;;17.23;6.47;;;;;;;;;;5074317;28;20040;-71
2022/04/29 00:20:57;;;;;;;;;;;;;;;;;;5074296;28;20040;-71
2022/04/29 00:23:23;;;;;;;19.48;6.72;;;;;;;;;;5074562;28;19998;-72
2022/04/29 00:25:49;;;;;;;14.45;6.45;;;;;;;;;;5074828;28;20048;-72
2022/04/29 00:28:16;;;;;;;16.50;6.03;;;;;;;;;;5074385;28;20101;-72
2022/04/29 00:30:42;;;;;;;;;;;;;;;;;;5074730;28;20105;-72
2022/04/29 00:33:08;;;;;;;15.77;6.55;;;;;;;;;;5074499;28;19928;-72
2022/04/29 00:35:34;;;;;;;19.33;6.55;;;;;;;;;;5073835;28;20044;-72
2022/04/29 00:38:00;;;;;;;15.25;5.95;;;;;;;;;;5073794;28;20472;-72
2022/04/29 00:40:27;;;;;;;16.02;6.75;;;;;;;;;;5072604;28;20048;-72
2022/04/29 00:42:53;;;;;;;15.23;6.45;;;;;;;;;;5073730;28;20048;-72
2022/04/29 00:45:20;;;;;;;20.55;6.82;;;;;;;;;;5073925;28;20384;-72
2022/04/29 00:47:47;;;;;;;12.65;5.97;;;;;;;;;;5073401;28;20044;-72
2022/04/29 00:50:14;;;;;;;21.83;6.93;;;;;;;;;;5074063;28;20127;-73
2022/04/29 00:52:47;;;;;;;15.23;6.00;;;;;;;;;;5073643;28;20446;-72
2022/04/29 00:55:14;;;;;;;18.38;7.07;;;;;;;;;;5073516;28;20040;-73
2022/04/29 00:57:56;;;;;;;18.95;6.57;;;;;;;;;;5073671;28;20476;-73
2022/04/29 01:00:22;;;;;;;17.45;7.68;;;;;;;;;;5073426;28;20105;-73
2022/04/29 01:02:48;;;;;;;;;;;;;;;;;;5074344;28;20094;-73
2022/04/29 01:05:15;;;;;;;15.05;7.18;;;;;;;;;;5073661;28;19921;-73
2022/04/29 01:07:42;;;;;;;14.30;7.22;;;;;;;;;;5074028;28;20040;-73
2022/04/29 01:10:10;;;;;;;17.70;7.45;;;;;;;;;;5072176;28;20136;-73
2022/04/29 01:12:37;;;;;;;16.48;7.53;;;;;;;;;;5073806;28;20045;-73
2022/04/29 01:15:05;;;;;;;19.52;8.43;;;;;;;;;;5072960;28;20385;-73
2022/04/29 01:17:32;;;;;;;21.23;7.93;;;;;;;;;;5073691;28;20084;-73
2022/04/29 01:20:03;;;;;;;21.60;8.32;;;;;;;;;;5073270;28;20450;-73
2022/04/29 01:22:29;;;;;;;19.48;7.50;;;;;;;;;;5073710;28;20048;-73
2022/04/29 01:24:55;;;;;;;21.67;8.55;;;;;;;;;;5073310;28;20041;-73
2022/04/29 01:27:21;;;;;;;19.75;8.27;;;;;;;;;;5073234;28;20052;-73
2022/04/29 01:29:51;;;;;;;17.73;8.27;;;;;;;;;;5073534;28;20149;-73
2022/04/29 01:32:17;;;;;;;14.68;7.55;;;;;;;;;;5073750;28;20047;-73
2022/04/29 01:34:43;;;;;;;17.15;8.23;;;;;;;;;;5073009;28;20040;-73
2022/04/29 01:37:09;;;;;;;18.38;8.30;;;;;;;;;;5073196;28;20049;-72
2022/04/29 01:39:35;;;;;;;17.95;7.55;;;;;;;;;;5073129;28;20044;-73
2022/04/29 01:42:02;;;;;;;19.45;8.50;;;;;;;;;;5073150;28;20071;-72
2022/04/29 01:44:28;;;;;;;15.10;7.63;;;;;;;;;;5072533;28;20451;-73
2022/04/29 01:46:54;;;;;;;16.20;8.38;;;;;;;;;;5071430;28;20388;-73
2022/04/29 01:49:20;;;;;;;14.75;7.85;;;;;;;;;;5073760;28;20040;-73
2022/04/29 01:51:46;;;;;;;17.10;8.05;;;;;;;;;;5073045;28;20482;-73
2022/04/29 01:54:12;;;;;;;21.70;8.07;;;;;;;;;;5073006;28;20044;-73
2022/04/29 01:56:40;;;;;;;20.05;8.02;;;;;;;;;;5071527;28;20135;-73
2022/04/29 01:59:07;;;;;;;17.98;8.50;;;;;;;;;;5071792;28;20072;-72
2022/04/29 02:01:34;;;;;;;20.70;8.30;;;;;;;;;;5073393;28;20177;-73
2022/04/29 02:04:00;;;;;;;17.92;8.38;;;;;;;;;;5071727;28;20512;-73
2022/04/29 02:06:27;;;;;;;18.25;8.23;;;;;;;;;;5072790;28;20036;-73
2022/04/29 02:08:53;;;;;;;17.42;8.38;;;;;;;;;;5073459;28;20082;-73
2022/04/29 02:11:20;;;;;;;15.77;7.97;;;;;;;;;;5072841;28;20131;-73
2022/04/29 02:13:46;;;;;;;19.13;8.20;;;;;;;;;;5072800;28;20048;-73
2022/04/29 02:16:12;;;;;;;;;;;;;;;;;;5073133;28;20045;-73
2022/04/29 02:18:38;;;;;;;14.40;7.97;;;;;;;;;;5072610;28;19925;-73
2022/04/29 02:21:04;;;;;;;17.25;8.07;;;;;;;;;;5071350;28;20515;-72
2022/04/29 02:23:30;;;;;;;17.33;8.52;;;;;;;;;;5072610;28;20044;-73
2022/04/29 02:26:00;;;;;;;21.42;7.93;;;;;;;;;;5074912;28;20040;-73
2022/04/29 02:28:27;;;;;;;17.55;7.57;;;;;;;;;;5076342;28;20121;-73
2022/04/29 02:30:55;;;;;;;19.05;8.57;;;;;;;;;;5075609;28;20056;-73
2022/04/29 02:33:21;;;;;;;15.52;7.93;;;;;;;;;;5075317;28;20084;-72
2022/04/29 02:35:47;;;;;;;;;;;;;;;;;;5076450;28;20045;-73
2022/04/29 02:38:13;;;;;;;17.30;8.50;;;;;;;;;;5076426;28;20360;-73
2022/04/29 02:40:39;;;;;;;19.60;8.50;;;;;;;;;;5076520;28;20055;-73
2022/04/29 02:43:05;;;;;;;17.35;8.65;;;;;;;;;;5076088;28;20131;-73
2022/04/29 02:45:32;;;;;;;14.77;8.20;;;;;;;;;;5075929;28;20142;-73
2022/04/29 02:47:58;;;;;;;16.15;8.32;;;;;;;;;;5074758;28;20079;-73
2022/04/29 02:50:24;;;;;;;15.13;8.13;;;;;;;;;;5075901;28;20045;-73
2022/04/29 02:52:51;;;;;;;17.00;8.57;;;;;;;;;;5058216;28;20048;-73
2022/04/29 02:55:17;;;;;;;17.63;7.97;;;;;;;;;;5076373;28;20042;-73
2022/04/29 02:57:43;;;;;;;19.77;9.25;;;;;;;;;;5075851;28;20481;-72
2022/04/29 03:00:09;;;;;;;17.90;7.88;;;;;;;;;;5076252;28;20044;-73
2022/04/29 03:02:35;;;;;;;;;;;;;;;;;;5076077;28;20114;-73
2022/04/29 03:05:01;;;;;;;13.95;8.20;;;;;;;;;;5076260;28;19921;-73
2022/04/29 03:07:27;;;;;;;16.05;8.80;;;;;;;;;;5074613;28;20125;-73
2022/04/29 03:09:53;;;;;;;17.63;9.57;;;;;;;;;;5075612;28;20048;-73
2022/04/29 03:12:23;;;;;;;16.38;8.27;;;;;;;;;;5075386;28;20101;-73
2022/04/29 03:14:49;;;;;;;18.60;8.60;;;;;;;;;;5074316;28;20072;-73
2022/04/29 03:20:00;;;;;;;18.02;8.90;;;;;;;;;;5074612;28;20048;-73
2022/04/29 03:22:27;;;;;;;18.13;8.73;;;;;;;;;;5074298;28;20044;-73
2022/04/29 03:24:53;;;;;;;20.92;8.70;;;;;;;;;;5075548;28;20049;-73
2022/04/29 03:27:19;;;;;;;16.25;8.15;;;;;;;;;;5075218;28;20048;-73
2022/04/29 03:29:45;;;;;;;18.05;9.15;;;;;;;;;;5075105;28;20091;-74
2022/04/29 03:32:12;;;;;;;16.30;8.93;;;;;;;;;;5075214;28;20049;-73
2022/04/29 03:34:38;;;;;;;16.45;8.77;;;;;;;;;;5073744;28;20082;-74
2022/04/29 03:37:04;;;;;;;21.27;9.13;;;;;;;;;;5074342;28;20057;-73
2022/04/29 03:39:30;;;;;;;16.50;9.30;;;;;;;;;;5074799;28;20047;-73
2022/04/29 03:41:56;;;;;;;16.35;8.77;;;;;;;;;;5074810;28;20040;-73
2022/04/29 03:44:22;;;;;;;23.13;9.60;;;;;;;;;;5074979;28;20052;-73
2022/04/29 03:46:48;;;;;;;20.95;9.48;;;;;;;;;;5074736;28;20040;-73
2022/04/29 03:51:59;;;;;;;18.38;9.63;;;;;;;;;;5074109;28;20480;-73
2022/04/29 03:54:25;;;;;;;16.60;9.15;;;;;;;;;;5074259;28;20481;-73
2022/04/29 03:56:52;;;;;;;17.10;9.02;;;;;;;;;;5072399;28;20060;-73
2022/04/29 03:59:19;;;;;;;17.40;9.80;;;;;;;;;;5073778;28;20190;-73
2022/04/29 04:01:45;;;;;;;16.80;9.50;;;;;;;;;;5073608;28;20520;-73
2022/04/29 04:04:11;;;;;;;20.08;9.65;;;;;;;;;;5073909;28;20080;-73
2022/04/29 04:06:49;;;;;;;;;;;;;;;;;;5074150;28;20472;-73
2022/04/29 04:09:16;;;;;;;;;;;;;;;;;;5074178;28;19920;-73
2022/04/29 04:11:42;;;;;;;17.40;9.48;;;;;;;;;;5073221;28;19927;-73
2022/04/29 04:14:08;;;;;;;22.48;9.57;;;;;;;;;;5073127;28;20127;-73
2022/04/29 04:16:35;;;;;;;20.15;10.20;;;;;;;;;;5054685;28;20056;-73
2022/04/29 04:19:01;;;;;;;17.45;9.57;;;;;;;;;;5072934;28;20040;-73
2022/04/29 04:21:28;;;;;;;15.30;9.18;;;;;;;;;;5072226;28;20040;-73
2022/04/29 04:23:54;;;;;;;;;;;;;;;;;;5072700;28;20044;-73
2022/04/29 04:26:20;;;;;;;17.35;9.65;;;;;;;;;;5072782;28;20263;-73
2022/04/29 04:28:46;;;;;;;16.30;9.35;;;;;;;;;;5071661;28;20535;-73
2022/04/29 04:31:12;;;;;;;15.40;10.02;;;;;;;;;;5070891;28;20558;-73
2022/04/29 04:33:38;;;;;;;22.45;10.40;;;;;;;;;;5072037;28;20485;-74
2022/04/29 04:36:05;;;;;;;17.98;10.43;;;;;;;;;;5071769;28;20041;-73
2022/04/29 04:38:31;;;;;;;;;;;;;;;;;;5071096;28;20056;-73
2022/04/29 04:40:58;;;;;;;17.38;10.55;;;;;;;;;;5071704;28;20366;-73
2022/04/29 04:43:24;;;;;;;19.15;10.70;;;;;;;;;;5070844;28;20072;-72
2022/04/29 04:45:51;;;;;;;24.15;12.18;;;;;;;;;;5071734;28;20052;-73
2022/04/29 04:48:17;;;;;;;22.65;11.18;;;;;;;;;;5053530;28;20044;-68
2022/04/29 04:50:43;;;;;;;21.83;10.88;;;;;;;;;;5071542;28;20051;-73
2022/04/29 04:53:09;;;;;;;15.70;10.48;;;;;;;;;;5071621;28;20087;-73
2022/04/29 04:55:38;;;;;;;19.92;11.30;;;;;;;;;;5071853;28;20036;-73
2022/04/29 04:58:05;;;;;;;18.60;11.35;;;;;;;;;;5072146;28;20053;-73
2022/04/29 05:00:31;;;;;;;16.75;10.88;;;;;;;;;;5072070;28;20064;-73
2022/04/29 05:02:57;;;;;;;20.13;10.85;;;;;;;;;;5071532;28;20534;-73
2022/04/29 05:05:23;;;;;;;20.85;11.55;;;;;;;;;;5071460;28;20097;-73
2022/04/29 05:07:49;;;;;;;23.73;11.88;;;;;;;;;;5071586;28;20139;-74
2022/04/29 05:10:15;;;;;;;21.20;11.02;;;;;;;;;;5071444;28;20083;-73
2022/04/29 05:12:46;;;;;;;17.90;10.30;;;;;;;;;;5071433;28;20051;-73
2022/04/29 05:15:13;;;;;;;21.83;10.20;;;;;;;;;;5071361;28;20047;-73
2022/04/29 05:17:40;;;;;;;19.25;9.95;;;;;;;;;;5071504;28;20110;-73
2022/04/29 05:20:07;;;;;;;18.30;9.90;;;;;;;;;;5071150;28;20085;-73
2022/04/29 05:22:33;;;;;;;19.02;9.15;;;;;;;;;;5071038;28;20431;-73
2022/04/29 05:24:59;;;;;;;16.77;9.07;;;;;;;;;;5071706;28;20067;-73
2022/04/29 05:27:25;;;;;;;16.13;9.27;;;;;;;;;;5070109;28;20044;-73
2022/04/29 05:29:51;;;;;;;17.90;9.02;;;;;;;;;;5071516;28;20153;-73
2022/04/29 05:32:18;;;;;;;18.83;9.45;;;;;;;;;;5069796;28;20124;-73
2022/04/29 05:34:45;;;;;;;17.35;9.05;;;;;;;;;;5071018;28;20048;-73
2022/04/29 05:37:11;;;;;;;;;;;;;;;;;;5071458;28;20125;-73
2022/04/29 05:42:23;;;;;;;19.55;9.10;;;;;;;;;;5070926;28;20055;-73
2022/04/29 05:44:49;;;;;;;19.05;8.98;;;;;;;;;;5071210;28;20048;-73
2022/04/29 05:47:15;;;;;;;;;;;;;;;;;;5071363;28;20461;-72
2022/04/29 05:49:41;;;;;;;18.65;8.52;;;;;;;;;;5070929;28;19931;-73
2022/04/29 05:52:08;;;;;;;20.48;8.73;;;;;;;;;;5071142;28;20036;-73
2022/04/29 05:54:35;;;;;;;19.08;8.35;;;;;;;;;;5069864;28;20049;-73
2022/04/29 05:57:01;;;;;;;16.67;8.93;;;;;;;;;;5070199;28;20067;-73
2022/04/29 05:59:28;;;;;;;15.02;8.25;;;;;;;;;;5052959;28;20115;-73
2022/04/29 06:01:54;;;;;;;17.60;7.95;;;;;;;;;;5056973;28;20049;-72
2022/04/29 06:04:20;;;;;;;19.23;8.18;;;;;;;;;;5075193;28;20053;-74
2022/04/29 06:06:46;;;;;;;18.42;7.65;;;;;;;;;;5075230;28;20055;-74
2022/04/29 06:09:13;;;;;;;18.05;7.47;;;;;;;;;;5074488;28;20448;-71
2022/04/29 06:11:39;;;;;;;15.63;8.18;;;;;;;;;;5074748;28;20056;-75
2022/04/29 06:14:05;;;;;;;17.40;7.43;;;;;;;;;;5073089;28;20052;-74
2022/04/29 06:16:31;;;;;;;16.55;7.55;;;;;;;;;;5074417;28;20149;-74
2022/04/29 06:18:57;;;;;;;18.00;7.63;;;;;;;;;;5074346;28;20049;-74
2022/04/29 06:21:23;;;;;;;13.25;7.43;;;;;;;;;;5074242;28;20055;-74
2022/04/29 06:23:50;;;;;;;18.88;8.23;;;;;;;;;;5074172;28;20091;-74
2022/04/29 06:26:16;;;;;;;16.95;7.88;;;;;;;;;;5074180;28;20045;-72
2022/04/29 06:28:42;;;;;;;19.02;7.10;;;;;;;;;;5073914;28;20048;-73
2022/04/29 06:31:08;;;;;;;18.98;7.93;;;;;;;;;;5073914;28;20049;-73
2022/04/29 06:33:35;;;;;;;18.33;7.82;;;;;;;;;;5074047;28;20488;-74
2022/04/29 06:36:02;;;;;;;16.17;8.70;;;;;;;;;;5074271;28;20094;-72
2022/04/29 06:38:28;;;;;;;15.40;7.82;;;;;;;;;;5073994;28;20098;-79
2022/04/29 06:40:58;;;;;;;16.27;7.95;;;;;;;;;;5074403;28;20041;-76
2022/04/29 06:43:24;;;;;;;18.25;8.13;;;;;;;;;;5072829;28;20094;-80
2022/04/29 06:45:50;;;;;;;;;;;;;;;;;;5074279;28;20128;-76
2022/04/29 06:48:16;;;;;;;14.88;6.35;;;;;;;;;;5073615;28;19985;-74
2022/04/29 06:50:42;;;;;;;14.75;6.15;;;;;;;;;;5073532;28;20044;-72
2022/04/29 06:53:09;;;;;;;15.35;6.07;;;;;;;;;;5072218;28;20393;-75
2022/04/29 06:55:35;;;;;;;;;;;;;;;;;;5072447;28;20155;-73
2022/04/29 06:58:01;;;;;;;15.80;6.45;;;;;;;;;;5073706;28;19921;-73
2022/04/29 07:00:27;;;;;;;12.73;6.25;;;;;;;;;;5073201;28;20102;-74
2022/04/29 07:02:53;;;;;;;15.02;7.05;;;;;;;;;;5055556;28;20048;-72
2022/04/29 07:05:19;;;;;;;12.88;7.18;;;;;;;;;;5073636;28;20051;-70
2022/04/29 07:07:49;;;;;;;18.75;7.63;;;;;;;;;;5073420;28;20128;-75
2022/04/29 07:10:15;;;;;;;14.23;7.00;;;;;;;;;;5073454;28;20048;-77
2022/04/29 07:12:46;;;;;;;18.70;7.40;;;;;;;;;;5072372;28;20055;-74
2022/04/29 07:15:13;;;;;;;17.67;6.97;;;;;;;;;;5073571;28;20123;-75
2022/04/29 07:17:39;;;;;;;;;;;;;;;;;;5072720;28;20555;-78
2022/04/29 07:20:06;;;;;;;22.27;7.25;;;;;;;;;;5071699;28;19963;-76
2022/04/29 07:22:32;;;;;;;15.98;6.97;;;;;;;;;;5073548;28;20358;-75
2022/04/29 07:24:58;;;;;;;15.98;7.40;;;;;;;;;;5073494;28;20056;-75
2022/04/29 07:27:25;;;;;;;15.32;6.93;;;;;;;;;;5073233;28;20136;-78
2022/04/29 07:29:51;;;;;;;14.57;6.72;;;;;;;;;;5073260;28;20056;-79
2022/04/29 07:32:17;;;;;;;14.90;6.68;;;;;;;;;;5072894;28;20044;-76
2022/04/29 07:42:57;;;;;;;11.98;5.20;;;;;;;;;;5073032;28;20048;-75
2022/04/29 07:45:24;;;;;;;12.85;4.68;;;;;;;;;;5071378;28;20127;-78
2022/04/29 07:47:51;;;;;;;12.35;4.50;;;;;;;;;;5072814;28;20044;-73
2022/04/29 07:50:17;;;;;;;12.73;5.40;;;;;;;;;;5071101;28;20131;-73
2022/04/29 07:52:43;;;;;;;9.32;3.88;;;;;;;;;;5071498;28;20041;-73
2022/04/29 07:55:09;;;;;;;15.82;4.43;;;;;;;;;;5071501;28;20040;-73
2022/04/29 07:57:35;;;;;;;12.35;4.78;;;;;;;;;;5072205;28;20114;-73
2022/04/29 08:00:01;;;;;;;12.63;4.60;;;;;;;;;;5072001;28;20105;-80
2022/04/29 08:02:27;;;;;;;12.73;4.97;;;;;;;;;;5072801;28;20125;-84
2022/04/29 08:04:53;;;;;;;10.88;4.55;;;;;;;;;;5072382;28;20044;-69
2022/04/29 08:07:19;;;;;;;13.38;4.82;;;;;;;;;;5071046;28;20044;-69
2022/04/29 08:09:45;;;;;;;13.63;4.47;;;;;;;;;;5072228;28;20045;-69
2022/04/29 08:12:13;;;;;;;10.43;4.43;;;;;;;;;;5072142;28;20048;-69
2022/04/29 08:14:40;;;;;;;13.75;4.43;;;;;;;;;;5072884;28;20436;-75
2022/04/29 08:17:06;;;;;;;11.13;4.55;;;;;;;;;;5071883;28;20045;-73
2022/04/29 08:19:33;;;;;;;;;;;;;;;;;;5072378;28;20040;-69
2022/04/29 08:21:59;;;;;;;11.90;4.50;;;;;;;;;;5072511;28;20011;-70
2022/04/29 08:24:26;;;;;;;14.68;4.70;;;;;;;;;;5071699;28;20046;-73
2022/04/29 08:26:52;;;;;;;10.50;4.05;;;;;;;;;;5071032;28;20063;-69
2022/04/29 08:29:18;;;;;;;13.98;4.60;;;;;;;;;;5071183;28;20071;-69
2022/04/29 08:31:44;;;;;;;11.73;4.45;;;;;;;;;;5071709;28;20110;-70
2022/04/29 08:34:11;;;;;;;11.15;4.93;;;;;;;;;;5072062;28;20159;-72
2022/04/29 08:36:37;;;;;;;11.32;4.95;;;;;;;;;;5070430;28;20048;-82
2022/04/29 08:39:03;;;;;;;10.60;5.18;;;;;;;;;;5071680;28;20463;-71
2022/04/29 08:41:30;;;;;;;12.90;5.22;;;;;;;;;;5071003;28;20070;-80
2022/04/29 08:43:56;;;;;;;12.88;4.90;;;;;;;;;;5071285;28;20637;-79
2022/04/29 08:46:22;;;;;;;12.35;5.03;;;;;;;;;;5071268;28;20549;-67
2022/04/29 08:48:50;;;;;;;16.30;5.00;;;;;;;;;;5070946;28;20144;-68
2022/04/29 08:51:16;;;;;;;14.40;5.28;;;;;;;;;;5071287;28;20480;-79
2022/04/29 08:53:42;;;;;;;13.73;5.40;;;;;;;;;;5071292;28;20049;-69
2022/04/29 08:58:53;;;;;;;10.38;4.70;;;;;;;;;;5071926;28;20048;-67
2022/04/29 09:01:21;;;;;;;23.33;5.85;;;;;;;;;;5071382;28;20100;-82
2022/04/29 09:03:47;;;;;;;14.77;5.20;;;;;;;;;;5071128;28;20052;-76
2022/04/29 09:06:17;;;;;;;11.60;5.15;;;;;;;;;;5071618;28;20137;-71
2022/04/29 09:08:46;;;;;;;11.05;4.40;;;;;;;;;;5071631;28;20145;-67
2022/04/29 09:11:20;;;;;;;13.07;5.00;;;;;;;;;;5071331;28;20044;-77
2022/04/29 09:13:46;;;;;;;15.10;5.57;;;;;;;;;;5071398;28;20063;-74
2022/04/29 09:16:14;;;;;;;13.77;4.60;;;;;;;;;;5071181;28;20041;-77
2022/04/29 09:18:48;;;;;;;13.93;4.68;;;;;;;;;;5053373;28;20113;-73
2022/04/29 09:21:14;;;;;;;12.48;5.03;;;;;;;;;;5071157;28;20048;-76
2022/04/29 09:23:49;;;;;;;17.02;6.43;;;;;;;;;;5069974;28;20049;-69
2022/04/29 09:26:22;;;;;;;15.13;5.07;;;;;;;;;;5070022;28;20071;-74
2022/04/29 09:28:49;;;;;;;11.63;4.65;;;;;;;;;;5070987;28;20083;-75
2022/04/29 09:31:15;;;;;;;13.57;4.53;;;;;;;;;;5071271;28;20055;-78
2022/04/29 09:33:52;;;;;;;14.57;5.15;;;;;;;;;;5069993;28;20109;-72
2022/04/29 09:36:26;;;;;;;14.63;6.22;;;;;;;;;;5073840;28;20159;-68
2022/04/29 09:41:38;;;;;;;13.40;5.63;;;;;;;;;;5074891;28;20053;-67
2022/04/29 09:44:04;;;;;;;13.82;6.53;;;;;;;;;;5075529;28;20048;-67
2022/04/29 09:46:32;;;;;;;12.98;6.30;;;;;;;;;;5074651;28;20083;-70
2022/04/29 09:48:59;;;;;;;12.80;5.85;;;;;;;;;;5074337;28;20412;-68
2022/04/29 09:51:45;;;;;;;12.32;5.72;;;;;;;;;;5074888;28;20076;-69
2022/04/29 09:54:14;;;;;;;12.73;5.85;;;;;;;;;;5075286;28;20080;-74
2022/04/29 09:56:41;;;;;;;13.90;6.60;;;;;;;;;;5074363;28;20100;-73
2022/04/29 09:59:08;;;;;;;16.35;6.50;;;;;;;;;;5074548;28;20102;-71
2022/04/29 10:01:34;;;;;;;13.93;6.32;;;;;;;;;;5073721;28;20131;-70
2022/04/29 10:04:00;;;;;;;;;;;;;;;;;;5074842;28;20110;-70
2022/04/29 10:06:27;;;;;;;16.50;6.55;;;;;;;;;;5073893;28;20418;-69
2022/04/29 10:08:53;;;;;;;13.15;6.72;;;;;;;;;;5074397;28;20063;-67
2022/04/29 10:11:24;;;;;;;12.48;5.90;;;;;;;;;;5074200;28;20051;-68
2022/04/29 10:13:51;;;;;;;14.18;6.93;;;;;;;;;;5074269;28;20157;-70
2022/04/29 10:16:18;;;;;;;13.07;6.60;;;;;;;;;;5074282;28;20190;-70
2022/04/29 10:21:38;;;;;;;18.52;6.20;;;;;;;;;;5074665;28;20365;-71
2022/04/29 10:24:04;;;;;;;15.82;6.55;;;;;;;;;;5074203;28;20528;-71
2022/04/29 10:26:30;;;;;;;;;;;;;;;;;;5074696;28;20080;-72
2022/04/29 10:28:56;;;;;;;17.70;6.47;;;;;;;;;;5074052;28;19989;-69
2022/04/29 10:31:23;;;;;;;15.57;6.55;;;;;;;;;;5074586;28;20393;-71
2022/04/29 10:33:49;;;;;;;;;;;;;;;;;;5074726;28;20060;-75
2022/04/29 10:36:16;;;;;;;13.68;6.63;;;;;;;;;;5073259;28;19965;-70
2022/04/29 10:38:46;;;;;;;13.77;6.50;;;;;;;;;;5073287;28;20078;-69
2022/04/29 10:41:19;;;;;;;16.00;6.38;;;;;;;;;;5074518;28;20051;-71
2022/04/29 10:43:48;;;;;;;14.63;7.03;;;;;;;;;;5072708;28;20083;-76
2022/04/29 10:46:15;;;;;;;14.60;6.97;;;;;;;;;;5073872;28;20098;-81
2022/04/29 10:48:43;;;;;;;12.77;6.35;;;;;;;;;;5072810;28;20127;-69
2022/04/29 10:51:10;;;;;;;13.07;5.60;;;;;;;;;;5074524;28;20044;-70
2022/04/29 10:53:43;;;;;;;14.98;6.20;;;;;;;;;;5072980;28;20058;-71
2022/04/29 10:56:27;;;;;;;14.07;6.15;;;;;;;;;;5074229;28;20049;-73
2022/04/29 10:58:54;;;;;;;13.00;6.15;;;;;;;;;;5074426;28;20053;-68
2022/04/29 11:01:24;;;;;;;14.45;6.22;;;;;;;;;;5073451;28;20048;-68
2022/04/29 11:03:50;;;;;;;14.18;6.22;;;;;;;;;;5073618;28;20126;-69
2022/04/29 11:06:16;;;;;;;13.82;6.68;;;;;;;;;;5073578;28;20098;-72
2022/04/29 11:08:44;;;;;;;12.27;6.57;;;;;;;;;;5071964;28;20481;-72
2022/04/29 11:11:10;;;;;;;12.55;6.07;;;;;;;;;;5073839;28;20120;-69
2022/04/29 11:13:37;;;;;;;21.30;6.63;;;;;;;;;;5074013;28;20079;-70
2022/04/29 11:16:13;;;;;;;13.73;6.50;;;;;;;;;;5073371;28;20066;-70
2022/04/29 11:18:41;;;;;;;14.00;6.60;;;;;;;;;;5072985;28;20048;-66
2022/04/29 11:26:47;;;;;;;12.75;5.10;;;;;;;;;;5073495;28;20040;-71
2022/04/29 11:29:14;;;;;;;12.05;5.55;;;;;;;;;;5073836;28;20055;-74
2022/04/29 11:31:40;;;;;;;12.00;5.40;;;;;;;;;;5073562;28;20051;-72
2022/04/29 11:34:16;;;;;;;10.98;5.40;;;;;;;;;;5071920;28;20129;-83
2022/04/29 11:36:44;;;;;;;11.10;5.05;;;;;;;;;;5072720;28;20037;-72
2022/04/29 11:39:19;;;;;;;13.93;5.10;;;;;;;;;;5073458;28;20048;-72
2022/04/29 11:41:56;;;;;;;14.10;5.18;;;;;;;;;;5071832;28;20037;-70
2022/04/29 11:44:34;;;;;;;11.13;4.75;;;;;;;;;;5073332;28;20054;-68
2022/04/29 11:47:01;;;;;;;12.50;5.03;;;;;;;;;;5072834;28;20040;-68
2022/04/29 11:49:32;;;;;;;16.98;6.03;;;;;;;;;;5073427;28;20131;-71
2022/04/29 11:52:19;;;;;;;11.95;5.10;;;;;;;;;;5072537;28;20053;-67
2022/04/29 11:54:52;;;;;;;10.82;4.90;;;;;;;;;;5072899;28;20432;-67
2022/04/29 11:57:18;;;;;;;12.25;5.40;;;;;;;;;;5072895;28;20435;-71
2022/04/29 11:59:45;;;;;;;10.25;5.10;;;;;;;;;;5072387;28;20056;-73
2022/04/29 12:02:11;;;;;;;11.07;4.57;;;;;;;;;;5071634;28;20124;-72
2022/04/29 12:04:37;;;;;;;14.27;4.90;;;;;;;;;;5071397;28;20102;-70
2022/04/29 12:07:05;;;;;;;11.63;4.88;;;;;;;;;;5072648;28;20370;-70
2022/04/29 12:09:34;;;;;;;13.13;5.40;;;;;;;;;;5072548;28;20048;-67
2022/04/29 12:12:00;;;;;;;13.30;5.07;;;;;;;;;;5072460;28;20040;-76
2022/04/29 12:14:26;;;;;;;11.13;4.97;;;;;;;;;;5071301;28;20059;-71
2022/04/29 12:16:53;;;;;;;11.80;5.40;;;;;;;;;;5071891;28;20036;-72
2022/04/29 12:19:19;;;;;;;;;;;;;;;;;;5054962;28;20049;-70
2022/04/29 12:21:55;;;;;;;12.23;4.82;;;;;;;;;;5072178;28;19928;-72
2022/04/29 12:24:21;;;;;;;13.20;5.40;;;;;;;;;;5072497;28;20127;-75
2022/04/29 12:26:47;;;;;;;;;;;;;;;;;;5072769;28;20044;-76
2022/04/29 12:29:13;;;;;;;10.98;5.03;;;;;;;;;;5070935;28;19939;-78
2022/04/29 12:34:48;;;;;;;11.65;5.00;;;;;;;;;;5072577;28;20062;-74
2022/04/29 12:37:14;;;;;;;11.93;4.80;;;;;;;;;;5071843;28;20044;-70
2022/04/29 12:39:43;;;;;;;14.52;5.20;;;;;;;;;;5072021;28;20041;-67
2022/04/29 12:42:19;;;;;;;14.32;5.38;;;;;;;;;;5072125;28;20049;-76
2022/04/29 12:45:10;;;;;;;11.27;5.47;;;;;;;;;;5072537;28;20358;-70
2022/04/29 12:47:41;;;;;;;10.57;4.80;;;;;;;;;;5072218;28;20490;-75
2022/04/29 12:50:20;;;;;;;18.30;4.90;;;;;;;;;;5070778;28;20044;-69
2022/04/29 12:53:13;;;;;;;15.70;4.80;;;;;;;;;;5071791;28;20135;-68
2022/04/29 12:55:39;;;;;;;11.75;4.68;;;;;;;;;;5069167;28;20094;-69
2022/04/29 12:58:17;;;;;;;13.85;5.03;;;;;;;;;;5071942;28;20151;-67
2022/04/29 13:00:53;;;;;;;10.00;4.88;;;;;;;;;;5071300;28;20051;-70
2022/04/29 13:03:21;;;;;;;13.60;5.22;;;;;;;;;;5053685;28;20072;-68
2022/04/29 13:05:47;;;;;;;10.18;4.35;;;;;;;;;;5071464;28;20048;-70
2022/04/29 13:08:14;;;;;;;10.63;4.70;;;;;;;;;;5070408;28;20048;-69
2022/04/29 13:10:49;;;;;;;12.38;5.15;;;;;;;;;;5069245;28;20076;-71
2022/04/29 13:13:16;;;;;;;28.10;5.60;;;;;;;;;;5072038;28;20174;-70
2022/04/29 13:15:43;;;;;;;13.68;5.43;;;;;;;;;;5070962;28;20047;-68
2022/04/29 13:18:09;;;;;;;18.10;4.95;;;;;;;;;;5071973;28;20059;-70
2022/04/29 13:20:36;;;;;;;12.68;5.85;;;;;;;;;;5071748;28;20044;-68
2022/04/29 13:23:02;;;;;;;12.52;5.00;;;;;;;;;;5071318;28;20040;-72
2022/04/29 13:25:28;;;;;;;13.30;4.80;;;;;;;;;;5070510;28;20062;-68
2022/04/29 13:27:54;;;;;;;17.13;5.18;;;;;;;;;;5070556;28;20098;-69
2022/04/29 13:30:21;;;;;;;13.07;5.80;;;;;;;;;;5071373;28;20078;-71
2022/04/29 13:32:47;;;;;;;14.32;5.65;;;;;;;;;;5071263;28;20075;-72
2022/04/29 13:35:15;;;;;;;12.10;5.00;;;;;;;;;;5071228;28;20084;-68
2022/04/29 13:37:42;;;;;;;11.90;4.80;;;;;;;;;;5071290;28;20183;-66
2022/04/29 13:40:08;;;;;;;12.57;5.32;;;;;;;;;;5071148;28;20189;-65
2022/04/29 13:42:35;;;;;;;12.95;5.18;;;;;;;;;;5071206;28;20040;-67
2022/04/29 13:45:01;;;;;;;11.48;5.07;;;;;;;;;;5070916;28;20059;-66
2022/04/29 13:47:27;;;;;;;14.90;5.75;;;;;;;;;;5071070;28;20097;-67
2022/04/29 13:49:53;;;;;;;11.35;5.10;;;;;;;;;;5070922;28;20044;-67
2022/04/29 13:55:05;;;;;;;12.77;4.82;;;;;;;;;;5070964;28;20131;-67
2022/04/29 13:57:32;;;;;;;13.20;5.90;;;;;;;;;;5071005;28;20088;-67
2022/04/29 13:59:59;;;;;;;13.05;6.85;;;;;;;;;;5071240;28;20049;-67
2022/04/29 14:02:25;;;;;;;14.25;6.57;;;;;;;;;;5070588;28;20575;-68
2022/04/29 14:04:52;;;;;;;13.30;6.03;;;;;;;;;;5070858;28;20238;-69
2022/04/29 14:07:18;;;;;;;11.55;5.95;;;;;;;;;;5070753;28;20051;-67
2022/04/29 14:09:44;;;;;;;14.85;6.40;;;;;;;;;;5070902;28;20489;-69
2022/04/29 14:12:11;;;;;;;15.57;6.68;;;;;;;;;;5069935;28;20468;-69
2022/04/29 14:14:38;;;;;;;16.38;6.15;;;;;;;;;;5070850;28;20079;-67
2022/04/29 14:17:04;;;;;;;12.98;6.10;;;;;;;;;;5070761;28;20044;-70
2022/04/29 14:19:31;;;;;;;14.00;7.10;;;;;;;;;;5069897;28;20396;-67
2022/04/29 14:21:57;;;;;;;15.95;7.85;;;;;;;;;;5072017;28;20114;-68
2022/04/29 14:24:23;;;;;;;;;;;;;;;;;;5074952;28;20178;-67
2022/04/29 14:26:49;;;;;;;15.20;7.15;;;;;;;;;;5074274;28;19924;-67
2022/04/29 14:29:15;;;;;;;16.90;7.72;;;;;;;;;;5074611;28;20052;-68
2022/04/29 14:31:41;;;;;;;17.48;7.28;;;;;;;;;;5072919;28;20127;-67
2022/04/29 14:34:08;;;;;;;16.35;7.78;;;;;;;;;;5074333;28;20165;-69
2022/04/29 14:36:34;;;;;;;14.32;6.80;;;;;;;;;;5074918;28;20037;-67
2022/04/29 14:39:00;;;;;;;16.50;6.88;;;;;;;;;;5074036;28;20135;-67
2022/04/29 14:41:27;;;;;;;17.60;7.45;;;;;;;;;;5073046;28;20441;-66
2022/04/29 14:43:54;;;;;;;16.75;8.48;;;;;;;;;;5073235;28;20052;-67
2022/04/29 14:46:20;;;;;;;;;;;;;;;;;;5073294;28;20052;-68
2022/04/29 14:48:46;;;;;;;16.98;7.30;;;;;;;;;;5073891;28;19920;-67
2022/04/29 14:51:12;;;;;;;19.20;8.05;;;;;;;;;;5073699;28;20546;-68
2022/04/29 14:53:39;;;;;;;19.50;8.07;;;;;;;;;;5073017;28;20366;-68
2022/04/29 14:56:08;;;;;;;15.55;7.07;;;;;;;;;;5073583;28;20048;-68
2022/04/29 14:58:34;;;;;;;17.63;7.07;;;;;;;;;;5073688;28;20056;-68
2022/04/29 15:01:01;;;;;;;18.08;7.70;;;;;;;;;;5073700;28;20135;-68
2022/04/29 15:03:27;;;;;;;16.25;7.10;;;;;;;;;;5073633;28;20125;-67
2022/04/29 15:05:56;;;;;;;15.50;7.15;;;;;;;;;;5073193;28;20056;-69
2022/04/29 15:08:23;;;;;;;14.07;7.10;;;;;;;;;;5074427;28;20080;-67
2022/04/29 15:16:18;;;;;;;15.20;6.45;;;;;;;;;;5072576;28;20131;-68
2022/04/29 15:18:45;;;;;;;17.55;6.07;;;;;;;;;;5072566;28;20048;-67
2022/04/29 15:21:11;;;;;;;11.38;5.57;;;;;;;;;;5073338;28;20048;-67